Rio Mira — CUQA7 — position and weather

sailwx.info

Track history (hours):
 
Tides and Currents Weather Stations Pressure Air Temp Water Temp Dewpoint Dewpoint Depression Visibility Wind Speed Wind Dir Waves Ship Positions

Rio Mira

Last reported at 2017-Oct-17 08:25 UTC. Time now 2017-Oct-18 02:31 UTC.
Position N 37°08' W 008°32'.

Length 17 m.

Type: Fishing. MMSI: 263402840.

Date/timePositionNaut miles runAvg speedWind from/ knotsBaromVisibWave heightAir tempDewpointWater temp
2017-Oct-17 08:25N 37°08' W 008°32'2 5.8
2017-Oct-17 08:00N 37°06' W 008°33'1 2.5
2017-Oct-17 07:30N 37°05' W 008°31'2 3.7
2017-Oct-17 07:00N 37°06' W 008°34'1 1.7
2017-Oct-17 06:30N 37°06' W 008°32'2 4.5
2017-Oct-17 06:00N 37°08' W 008°32'  
2017-Oct-13 11:52N 37°08' W 008°32'0 0.0
2017-Oct-13 11:31N 37°08' W 008°32'0 0.0
2017-Oct-13 11:01N 37°08' W 008°32'0 0.0
2017-Oct-13 10:30N 37°08' W 008°32'0 0.0
2017-Oct-13 10:00N 37°08' W 008°32'0 0.7
2017-Oct-13 09:31N 37°08' W 008°32'2 4.8
2017-Oct-13 09:00N 37°06' W 008°33'0 0.5
2017-Oct-13 08:29N 37°06' W 008°33'0 0.3
2017-Oct-13 08:00N 37°06' W 008°33'0 0.3
2017-Oct-13 07:30N 37°06' W 008°33'3 5.7
2017-Oct-13 07:00N 37°05' W 008°29'2 4.2
2017-Oct-13 06:30N 37°04' W 008°27'3 5.4
2017-Oct-13 06:00N 37°05' W 008°30'3 5.6
2017-Oct-13 05:30N 37°07' W 008°32'0 0.0
2017-Oct-12 09:12N 37°07' W 008°32'1 6.6
2017-Oct-12 09:00N 37°06' W 008°32'1 1.9
2017-Oct-12 08:29N 37°06' W 008°33'0 0.3
2017-Oct-12 07:59N 37°06' W 008°33'0 0.1
2017-Oct-12 07:30N 37°06' W 008°33'0 0.2
2017-Oct-12 07:00N 37°06' W 008°33'2 3.5
2017-Oct-12 06:30N 37°05' W 008°35'3 4.9
2017-Oct-12 05:59N 37°04' W 008°37'2 4.5
2017-Oct-12 05:29N 37°06' W 008°36'3 5.5
2017-Oct-12 05:00N 37°06' W 008°33'1 2.1
2017-Oct-12 04:30N 37°06' W 008°32'2 4.4
2017-Oct-12 03:59N 37°08' W 008°32'0 0.0
2017-Oct-10 09:58N 37°08' W 008°32'0 0.3
2017-Oct-10 09:30N 37°08' W 008°32'2 3.9
2017-Oct-10 09:00N 37°06' W 008°32'1 0.5
2017-Oct-10 07:35N 37°05' W 008°31'0 0.0
2017-Oct-10 07:30N 37°05' W 008°31'0 0.3
2017-Oct-10 07:00N 37°06' W 008°32'0 0.8
2017-Oct-10 06:30N 37°06' W 008°32'3 5.3
2017-Oct-10 06:00N 37°05' W 008°29'2 4.9
2017-Oct-10 05:30N 37°04' W 008°26'2 4.0
2017-Oct-10 04:58N 37°03' W 008°23'3 5.7
2017-Oct-10 04:24N 37°01' W 008°21'1 1.4
2017-Oct-10 04:00N 37°02' W 008°21'3 5.3
2017-Oct-10 03:30N 37°03' W 008°24'2 4.9
2017-Oct-10 03:01N 37°04' W 008°26'3 5.7
2017-Oct-10 02:30N 37°05' W 008°30'3 4.8
2017-Oct-10 01:59N 37°06' W 008°32'1 0.0
2017-Oct-09 02:29N 37°07' W 008°32'3 6.4
2017-Oct-09 02:00N 37°04' W 008°30'3 6.1
2017-Oct-09 01:31N 37°02' W 008°27'2 3.8
2017-Oct-09 01:00N 37°04' W 008°26'3 6.1
2017-Oct-09 00:30N 37°05' W 008°29'3 5.4
2017-Oct-09 00:00N 37°07' W 008°32'  
Track history (hours):
 
Tides and Currents Weather Stations Pressure Air Temp Water Temp Dewpoint Dewpoint Depression Visibility Wind Speed Wind Dir Waves Ship Positions

Rio Mira

Last reported at 2017-Oct-17 08:25 UTC. Time now 2017-Oct-18 02:31 UTC.
Position N 37°08' W 008°32'.

Length 17 m.

Type: Fishing. MMSI: 263402840.

Date/timePositionNaut miles runAvg speedWind from/ knotsBaromVisibWave heightAir tempDewpointWater temp
2017-Oct-17 08:25N 37°08' W 008°32'2 5.8
2017-Oct-17 08:00N 37°06' W 008°33'1 2.5
2017-Oct-17 07:30N 37°05' W 008°31'2 3.7
2017-Oct-17 07:00N 37°06' W 008°34'1 1.7
2017-Oct-17 06:30N 37°06' W 008°32'2 4.5
2017-Oct-17 06:00N 37°08' W 008°32'  
2017-Oct-13 11:52N 37°08' W 008°32'0 0.0
2017-Oct-13 11:31N 37°08' W 008°32'0 0.0
2017-Oct-13 11:01N 37°08' W 008°32'0 0.0
2017-Oct-13 10:30N 37°08' W 008°32'0 0.0
2017-Oct-13 10:00N 37°08' W 008°32'0 0.7
2017-Oct-13 09:31N 37°08' W 008°32'2 4.8
2017-Oct-13 09:00N 37°06' W 008°33'0 0.5
2017-Oct-13 08:29N 37°06' W 008°33'0 0.3
2017-Oct-13 08:00N 37°06' W 008°33'0 0.3
2017-Oct-13 07:30N 37°06' W 008°33'3 5.7
2017-Oct-13 07:00N 37°05' W 008°29'2 4.2
2017-Oct-13 06:30N 37°04' W 008°27'3 5.4
2017-Oct-13 06:00N 37°05' W 008°30'3 5.6
2017-Oct-13 05:30N 37°07' W 008°32'0 0.0
2017-Oct-12 09:12N 37°07' W 008°32'1 6.6
2017-Oct-12 09:00N 37°06' W 008°32'1 1.9
2017-Oct-12 08:29N 37°06' W 008°33'0 0.3
2017-Oct-12 07:59N 37°06' W 008°33'0 0.1
2017-Oct-12 07:30N 37°06' W 008°33'0 0.2
2017-Oct-12 07:00N 37°06' W 008°33'2 3.5
2017-Oct-12 06:30N 37°05' W 008°35'3 4.9
2017-Oct-12 05:59N 37°04' W 008°37'2 4.5
2017-Oct-12 05:29N 37°06' W 008°36'3 5.5
2017-Oct-12 05:00N 37°06' W 008°33'1 2.1
2017-Oct-12 04:30N 37°06' W 008°32'2 4.4
2017-Oct-12 03:59N 37°08' W 008°32'0 0.0
2017-Oct-10 09:58N 37°08' W 008°32'0 0.3
2017-Oct-10 09:30N 37°08' W 008°32'2 3.9
2017-Oct-10 09:00N 37°06' W 008°32'1 0.5
2017-Oct-10 07:35N 37°05' W 008°31'0 0.0
2017-Oct-10 07:30N 37°05' W 008°31'0 0.3
2017-Oct-10 07:00N 37°06' W 008°32'0 0.8
2017-Oct-10 06:30N 37°06' W 008°32'3 5.3
2017-Oct-10 06:00N 37°05' W 008°29'2 4.9
2017-Oct-10 05:30N 37°04' W 008°26'2 4.0
2017-Oct-10 04:58N 37°03' W 008°23'3 5.7
2017-Oct-10 04:24N 37°01' W 008°21'1 1.4
2017-Oct-10 04:00N 37°02' W 008°21'3 5.3
2017-Oct-10 03:30N 37°03' W 008°24'2 4.9
2017-Oct-10 03:01N 37°04' W 008°26'3 5.7
2017-Oct-10 02:30N 37°05' W 008°30'3 4.8
2017-Oct-10 01:59N 37°06' W 008°32'1 0.0
2017-Oct-09 02:29N 37°07' W 008°32'3 6.4
2017-Oct-09 02:00N 37°04' W 008°30'3 6.1
2017-Oct-09 01:31N 37°02' W 008°27'2 3.8
2017-Oct-09 01:00N 37°04' W 008°26'3 6.1
2017-Oct-09 00:30N 37°05' W 008°29'3 5.4
2017-Oct-09 00:00N 37°07' W 008°32'  

Dump ship's entire track history